sensor_id;sensor_type;location;lat;lon;timestamp;temperature;humidity
30889;DHT22;51092;50.874;7.024;2022-08-06T00:00:19;16.20;86.00
30889;DHT22;51092;50.874;7.024;2022-08-06T00:01:21;16.20;85.80
30889;DHT22;51092;50.874;7.024;2022-08-06T00:02:24;16.10;84.20
30889;DHT22;51092;50.874;7.024;2022-08-06T00:03:26;16.10;85.70
30889;DHT22;51092;50.874;7.024;2022-08-06T00:04:27;16.10;85.40
30889;DHT22;51092;50.874;7.024;2022-08-06T00:05:30;16.10;85.50
30889;DHT22;51092;50.874;7.024;2022-08-06T00:06:32;16.10;86.30
30889;DHT22;51092;50.874;7.024;2022-08-06T00:07:35;16.00;85.50
30889;DHT22;51092;50.874;7.024;2022-08-06T00:08:36;16.00;85.60
30889;DHT22;51092;50.874;7.024;2022-08-06T00:09:39;16.10;85.60
30889;DHT22;51092;50.874;7.024;2022-08-06T00:10:40;16.00;86.10
30889;DHT22;51092;50.874;7.024;2022-08-06T00:11:43;16.00;86.80
30889;DHT22;51092;50.874;7.024;2022-08-06T00:12:45;16.00;87.30
30889;DHT22;51092;50.874;7.024;2022-08-06T00:13:47;15.90;87.80
30889;DHT22;51092;50.874;7.024;2022-08-06T00:14:48;15.90;87.90
30889;DHT22;51092;50.874;7.024;2022-08-06T00:15:50;15.90;87.90
30889;DHT22;51092;50.874;7.024;2022-08-06T00:16:52;15.90;88.70
30889;DHT22;51092;50.874;7.024;2022-08-06T00:17:55;15.80;89.40
30889;DHT22;51092;50.874;7.024;2022-08-06T00:18:58;15.80;89.70
30889;DHT22;51092;50.874;7.024;2022-08-06T00:19:59;15.80;90.00
30889;DHT22;51092;50.874;7.024;2022-08-06T00:21:04;15.80;90.10
30889;DHT22;51092;50.874;7.024;2022-08-06T00:22:06;15.80;90.40
30889;DHT22;51092;50.874;7.024;2022-08-06T00:23:09;15.70;90.30
30889;DHT22;51092;50.874;7.024;2022-08-06T00:24:11;15.70;90.40
30889;DHT22;51092;50.874;7.024;2022-08-06T00:25:14;15.70;90.80
30889;DHT22;51092;50.874;7.024;2022-08-06T00:26:16;15.60;90.80
30889;DHT22;51092;50.874;7.024;2022-08-06T00:27:18;15.60;90.90
30889;DHT22;51092;50.874;7.024;2022-08-06T00:28:21;15.60;91.30
30889;DHT22;51092;50.874;7.024;2022-08-06T00:29:24;15.60;91.40
30889;DHT22;51092;50.874;7.024;2022-08-06T00:30:26;15.60;91.10
30889;DHT22;51092;50.874;7.024;2022-08-06T00:31:28;15.60;91.10
30889;DHT22;51092;50.874;7.024;2022-08-06T00:32:30;15.60;91.30
30889;DHT22;51092;50.874;7.024;2022-08-06T00:33:32;15.60;91.30
30889;DHT22;51092;50.874;7.024;2022-08-06T00:34:34;15.60;91.30
30889;DHT22;51092;50.874;7.024;2022-08-06T00:35:36;15.60;91.50
30889;DHT22;51092;50.874;7.024;2022-08-06T00:36:39;15.60;91.20
30889;DHT22;51092;50.874;7.024;2022-08-06T00:37:42;15.60;91.20
30889;DHT22;51092;50.874;7.024;2022-08-06T00:38:43;15.60;90.90
30889;DHT22;51092;50.874;7.024;2022-08-06T00:39:46;15.60;90.70
30889;DHT22;51092;50.874;7.024;2022-08-06T00:40:48;15.60;90.70
30889;DHT22;51092;50.874;7.024;2022-08-06T00:41:50;15.50;91.40
30889;DHT22;51092;50.874;7.024;2022-08-06T00:42:52;15.50;91.90
30889;DHT22;51092;50.874;7.024;2022-08-06T00:43:54;15.40;93.20
30889;DHT22;51092;50.874;7.024;2022-08-06T00:44:57;15.30;93.50
30889;DHT22;51092;50.874;7.024;2022-08-06T00:46:00;15.30;94.10
30889;DHT22;51092;50.874;7.024;2022-08-06T00:47:02;15.30;94.20
30889;DHT22;51092;50.874;7.024;2022-08-06T00:48:05;15.20;94.80
30889;DHT22;51092;50.874;7.024;2022-08-06T00:49:08;15.20;94.40
30889;DHT22;51092;50.874;7.024;2022-08-06T00:50:11;15.20;94.30
30889;DHT22;51092;50.874;7.024;2022-08-06T00:51:12;15.20;94.40
30889;DHT22;51092;50.874;7.024;2022-08-06T00:52:16;15.20;94.80
30889;DHT22;51092;50.874;7.024;2022-08-06T00:53:17;15.30;94.30
30889;DHT22;51092;50.874;7.024;2022-08-06T00:54:21;15.30;94.00
30889;DHT22;51092;50.874;7.024;2022-08-06T00:55:22;15.30;93.60
30889;DHT22;51092;50.874;7.024;2022-08-06T00:56:25;15.30;94.00
30889;DHT22;51092;50.874;7.024;2022-08-06T00:57:26;15.30;93.80
30889;DHT22;51092;50.874;7.024;2022-08-06T00:58:29;15.30;93.20
30889;DHT22;51092;50.874;7.024;2022-08-06T00:59:31;15.40;93.10
30889;DHT22;51092;50.874;7.024;2022-08-06T01:00:34;15.40;92.70
30889;DHT22;51092;50.874;7.024;2022-08-06T01:01:35;15.40;93.30
30889;DHT22;51092;50.874;7.024;2022-08-06T01:02:39;15.30;93.60
30889;DHT22;51092;50.874;7.024;2022-08-06T01:03:40;15.20;93.90
30889;DHT22;51092;50.874;7.024;2022-08-06T01:04:42;15.20;93.60
30889;DHT22;51092;50.874;7.024;2022-08-06T01:05:45;15.20;95.40
30889;DHT22;51092;50.874;7.024;2022-08-06T01:06:47;15.10;95.90
30889;DHT22;51092;50.874;7.024;2022-08-06T01:07:50;15.00;96.20
30889;DHT22;51092;50.874;7.024;2022-08-06T01:08:52;15.00;97.00
30889;DHT22;51092;50.874;7.024;2022-08-06T01:09:54;15.00;97.90
30889;DHT22;51092;50.874;7.024;2022-08-06T01:10:56;14.90;97.70
30889;DHT22;51092;50.874;7.024;2022-08-06T01:11:58;14.90;97.60
30889;DHT22;51092;50.874;7.024;2022-08-06T01:13:00;15.00;98.10
30889;DHT22;51092;50.874;7.024;2022-08-06T01:14:02;14.90;97.20
30889;DHT22;51092;50.874;7.024;2022-08-06T01:15:05;14.90;96.80
30889;DHT22;51092;50.874;7.024;2022-08-06T01:16:12;14.90;97.30
30889;DHT22;51092;50.874;7.024;2022-08-06T01:17:24;14.90;97.60
30889;DHT22;51092;50.874;7.024;2022-08-06T01:18:31;14.90;98.30
30889;DHT22;51092;50.874;7.024;2022-08-06T01:19:50;14.90;97.90
30889;DHT22;51092;50.874;7.024;2022-08-06T01:21:05;14.90;97.80
30889;DHT22;51092;50.874;7.024;2022-08-06T01:22:19;14.80;98.00
30889;DHT22;51092;50.874;7.024;2022-08-06T01:23:38;14.70;99.90
30889;DHT22;51092;50.874;7.024;2022-08-06T01:24:53;14.60;99.90
30889;DHT22;51092;50.874;7.024;2022-08-06T01:26:23;14.60;99.90
30889;DHT22;51092;50.874;7.024;2022-08-06T01:27:42;14.50;99.90
30889;DHT22;51092;50.874;7.024;2022-08-06T01:28:48;14.30;99.90
30889;DHT22;51092;50.874;7.024;2022-08-06T01:29:56;14.20;99.90
30889;DHT22;51092;50.874;7.024;2022-08-06T01:31:02;14.10;99.90
30889;DHT22;51092;50.874;7.024;2022-08-06T01:32:09;14.10;99.90
30889;DHT22;51092;50.874;7.024;2022-08-06T01:33:14;14.10;99.90
30889;DHT22;51092;50.874;7.024;2022-08-06T01:34:23;14.10;99.90
30889;DHT22;51092;50.874;7.024;2022-08-06T01:35:29;14.00;99.90
30889;DHT22;51092;50.874;7.024;2022-08-06T01:36:38;14.00;99.90
30889;DHT22;51092;50.874;7.024;2022-08-06T01:37:45;13.90;99.90
30889;DHT22;51092;50.874;7.024;2022-08-06T01:38:52;13.80;99.90
30889;DHT22;51092;50.874;7.024;2022-08-06T01:40:00;13.80;99.90
30889;DHT22;51092;50.874;7.024;2022-08-06T01:41:07;13.70;99.90
30889;DHT22;51092;50.874;7.024;2022-08-06T01:42:10;13.80;99.90
30889;DHT22;51092;50.874;7.024;2022-08-06T01:43:18;13.80;99.90
30889;DHT22;51092;50.874;7.024;2022-08-06T01:44:23;13.80;99.90
30889;DHT22;51092;50.874;7.024;2022-08-06T01:45:29;13.80;99.90
30889;DHT22;51092;50.874;7.024;2022-08-06T01:46:32;13.80;99.90
30889;DHT22;51092;50.874;7.024;2022-08-06T01:47:36;13.80;99.90
30889;DHT22;51092;50.874;7.024;2022-08-06T01:48:40;13.90;99.90
30889;DHT22;51092;50.874;7.024;2022-08-06T01:49:46;14.00;99.90
30889;DHT22;51092;50.874;7.024;2022-08-06T01:50:49;13.90;99.90
30889;DHT22;51092;50.874;7.024;2022-08-06T01:51:55;13.90;99.90
30889;DHT22;51092;50.874;7.024;2022-08-06T01:52:59;13.90;99.90
30889;DHT22;51092;50.874;7.024;2022-08-06T01:54:04;13.90;99.90
30889;DHT22;51092;50.874;7.024;2022-08-06T01:55:09;13.90;99.90
30889;DHT22;51092;50.874;7.024;2022-08-06T01:56:12;13.90;99.90
30889;DHT22;51092;50.874;7.024;2022-08-06T01:57:17;13.90;99.90
30889;DHT22;51092;50.874;7.024;2022-08-06T01:58:27;13.90;99.90
30889;DHT22;51092;50.874;7.024;2022-08-06T01:59:33;13.90;99.90
30889;DHT22;51092;50.874;7.024;2022-08-06T02:00:40;13.90;99.90
30889;DHT22;51092;50.874;7.024;2022-08-06T02:01:44;13.80;99.90
30889;DHT22;51092;50.874;7.024;2022-08-06T02:02:50;13.80;99.90
30889;DHT22;51092;50.874;7.024;2022-08-06T02:03:55;13.80;99.90
30889;DHT22;51092;50.874;7.024;2022-08-06T02:04:59;13.80;99.90
30889;DHT22;51092;50.874;7.024;2022-08-06T02:06:02;13.80;99.90
30889;DHT22;51092;50.874;7.024;2022-08-06T02:07:09;13.80;99.90
30889;DHT22;51092;50.874;7.024;2022-08-06T02:08:13;13.80;99.90
30889;DHT22;51092;50.874;7.024;2022-08-06T02:09:20;13.80;99.90
30889;DHT22;51092;50.874;7.024;2022-08-06T02:10:22;13.70;99.90
30889;DHT22;51092;50.874;7.024;2022-08-06T02:11:25;13.80;99.90
30889;DHT22;51092;50.874;7.024;2022-08-06T02:12:28;13.80;99.90
30889;DHT22;51092;50.874;7.024;2022-08-06T02:13:32;13.80;99.90
30889;DHT22;51092;50.874;7.024;2022-08-06T02:14:37;13.80;99.90
30889;DHT22;51092;50.874;7.024;2022-08-06T02:15:42;13.80;99.90
30889;DHT22;51092;50.874;7.024;2022-08-06T02:16:45;13.70;99.90
30889;DHT22;51092;50.874;7.024;2022-08-06T02:17:50;13.80;99.90
30889;DHT22;51092;50.874;7.024;2022-08-06T02:18:53;13.80;99.90
30889;DHT22;51092;50.874;7.024;2022-08-06T02:19:57;13.80;99.90
30889;DHT22;51092;50.874;7.024;2022-08-06T02:21:04;13.80;99.90
30889;DHT22;51092;50.874;7.024;2022-08-06T02:22:08;13.70;99.90
30889;DHT22;51092;50.874;7.024;2022-08-06T02:23:15;13.70;99.90
30889;DHT22;51092;50.874;7.024;2022-08-06T02:24:18;13.70;99.90
30889;DHT22;51092;50.874;7.024;2022-08-06T02:25:21;13.70;99.90
30889;DHT22;51092;50.874;7.024;2022-08-06T02:26:26;13.70;99.90
30889;DHT22;51092;50.874;7.024;2022-08-06T02:27:29;13.70;99.90
30889;DHT22;51092;50.874;7.024;2022-08-06T02:28:36;13.70;99.90
30889;DHT22;51092;50.874;7.024;2022-08-06T02:29:40;13.70;99.90
30889;DHT22;51092;50.874;7.024;2022-08-06T02:30:46;13.70;99.90
30889;DHT22;51092;50.874;7.024;2022-08-06T02:31:49;13.60;99.90
30889;DHT22;51092;50.874;7.024;2022-08-06T02:32:52;13.60;99.90
30889;DHT22;51092;50.874;7.024;2022-08-06T02:33:54;13.60;99.90
30889;DHT22;51092;50.874;7.024;2022-08-06T02:34:57;13.60;99.90
30889;DHT22;51092;50.874;7.024;2022-08-06T02:36:04;13.50;99.90
30889;DHT22;51092;50.874;7.024;2022-08-06T02:37:13;13.50;99.90
30889;DHT22;51092;50.874;7.024;2022-08-06T02:38:21;13.50;99.90
30889;DHT22;51092;50.874;7.024;2022-08-06T02:39:26;13.50;99.90
30889;DHT22;51092;50.874;7.024;2022-08-06T02:40:34;13.50;99.90
30889;DHT22;51092;50.874;7.024;2022-08-06T02:41:40;13.40;99.90
30889;DHT22;51092;50.874;7.024;2022-08-06T02:42:47;13.40;99.90
30889;DHT22;51092;50.874;7.024;2022-08-06T02:43:55;13.40;99.90
30889;DHT22;51092;50.874;7.024;2022-08-06T02:45:03;13.40;99.90
30889;DHT22;51092;50.874;7.024;2022-08-06T02:46:11;13.30;99.90
30889;DHT22;51092;50.874;7.024;2022-08-06T02:47:17;13.30;99.90
30889;DHT22;51092;50.874;7.024;2022-08-06T02:48:23;13.20;99.90
30889;DHT22;51092;50.874;7.024;2022-08-06T02:49:28;13.20;99.90
30889;DHT22;51092;50.874;7.024;2022-08-06T02:50:35;13.10;99.90
30889;DHT22;51092;50.874;7.024;2022-08-06T02:51:39;13.10;99.90
30889;DHT22;51092;50.874;7.024;2022-08-06T02:52:46;13.10;99.90
30889;DHT22;51092;50.874;7.024;2022-08-06T02:53:56;13.10;99.90
30889;DHT22;51092;50.874;7.024;2022-08-06T02:55:07;13.00;99.90
30889;DHT22;51092;50.874;7.024;2022-08-06T02:56:13;13.00;99.90
30889;DHT22;51092;50.874;7.024;2022-08-06T02:57:21;12.90;99.90
30889;DHT22;51092;50.874;7.024;2022-08-06T02:58:28;12.80;99.90
30889;DHT22;51092;50.874;7.024;2022-08-06T02:59:39;12.80;99.90
30889;DHT22;51092;50.874;7.024;2022-08-06T03:00:45;12.80;99.90
30889;DHT22;51092;50.874;7.024;2022-08-06T03:01:52;12.70;99.90
30889;DHT22;51092;50.874;7.024;2022-08-06T03:02:59;12.70;99.90
30889;DHT22;51092;50.874;7.024;2022-08-06T03:04:04;12.60;99.90
30889;DHT22;51092;50.874;7.024;2022-08-06T03:05:10;12.60;99.90
30889;DHT22;51092;50.874;7.024;2022-08-06T03:06:16;12.60;99.90
30889;DHT22;51092;50.874;7.024;2022-08-06T03:07:20;12.60;99.90
30889;DHT22;51092;50.874;7.024;2022-08-06T03:08:24;12.60;99.90
30889;DHT22;51092;50.874;7.024;2022-08-06T03:09:26;12.60;99.90
30889;DHT22;51092;50.874;7.024;2022-08-06T03:10:29;12.50;99.90
30889;DHT22;51092;50.874;7.024;2022-08-06T03:11:34;12.50;99.90
30889;DHT22;51092;50.874;7.024;2022-08-06T03:12:38;12.40;99.90
30889;DHT22;51092;50.874;7.024;2022-08-06T03:13:43;12.50;99.90
30889;DHT22;51092;50.874;7.024;2022-08-06T03:14:48;12.50;99.90
30889;DHT22;51092;50.874;7.024;2022-08-06T03:15:52;12.50;99.90
30889;DHT22;51092;50.874;7.024;2022-08-06T03:16:56;12.50;99.90
30889;DHT22;51092;50.874;7.024;2022-08-06T03:17:59;12.50;99.90
30889;DHT22;51092;50.874;7.024;2022-08-06T03:19:03;12.60;99.90
30889;DHT22;51092;50.874;7.024;2022-08-06T03:20:06;12.70;99.90
30889;DHT22;51092;50.874;7.024;2022-08-06T03:21:10;12.60;99.90
30889;DHT22;51092;50.874;7.024;2022-08-06T03:22:14;12.70;99.90
30889;DHT22;51092;50.874;7.024;2022-08-06T03:23:17;12.70;99.90
30889;DHT22;51092;50.874;7.024;2022-08-06T03:24:21;12.70;99.90
30889;DHT22;51092;50.874;7.024;2022-08-06T03:25:24;12.80;99.90
30889;DHT22;51092;50.874;7.024;2022-08-06T03:26:26;12.80;99.90
30889;DHT22;51092;50.874;7.024;2022-08-06T03:27:30;12.80;99.90
30889;DHT22;51092;50.874;7.024;2022-08-06T03:28:33;12.80;99.90
30889;DHT22;51092;50.874;7.024;2022-08-06T03:29:37;12.80;99.90
30889;DHT22;51092;50.874;7.024;2022-08-06T03:30:40;12.80;99.90
30889;DHT22;51092;50.874;7.024;2022-08-06T03:31:43;12.80;99.90
30889;DHT22;51092;50.874;7.024;2022-08-06T03:32:45;12.70;99.90
30889;DHT22;51092;50.874;7.024;2022-08-06T03:33:48;12.80;99.90
30889;DHT22;51092;50.874;7.024;2022-08-06T03:34:51;12.80;99.90
30889;DHT22;51092;50.874;7.024;2022-08-06T03:35:56;12.80;99.90
30889;DHT22;51092;50.874;7.024;2022-08-06T03:37:01;12.80;99.90
30889;DHT22;51092;50.874;7.024;2022-08-06T03:38:06;12.90;99.90
30889;DHT22;51092;50.874;7.024;2022-08-06T03:39:09;12.90;99.90
30889;DHT22;51092;50.874;7.024;2022-08-06T03:40:13;12.90;99.90
30889;DHT22;51092;50.874;7.024;2022-08-06T03:41:16;12.90;99.90
30889;DHT22;51092;50.874;7.024;2022-08-06T03:42:19;12.90;99.90
30889;DHT22;51092;50.874;7.024;2022-08-06T03:43:21;12.90;99.90
30889;DHT22;51092;50.874;7.024;2022-08-06T03:44:24;12.90;99.90
30889;DHT22;51092;50.874;7.024;2022-08-06T03:45:26;12.80;99.90
30889;DHT22;51092;50.874;7.024;2022-08-06T03:46:35;12.70;99.90
30889;DHT22;51092;50.874;7.024;2022-08-06T03:47:41;12.60;99.90
30889;DHT22;51092;50.874;7.024;2022-08-06T03:48:46;12.60;99.90
30889;DHT22;51092;50.874;7.024;2022-08-06T03:49:51;12.60;99.90
30889;DHT22;51092;50.874;7.024;2022-08-06T03:50:55;12.50;99.90
30889;DHT22;51092;50.874;7.024;2022-08-06T03:52:00;12.50;99.90
30889;DHT22;51092;50.874;7.024;2022-08-06T03:53:06;12.50;99.90
30889;DHT22;51092;50.874;7.024;2022-08-06T03:54:08;12.50;99.90
30889;DHT22;51092;50.874;7.024;2022-08-06T03:55:15;12.40;99.90
30889;DHT22;51092;50.874;7.024;2022-08-06T03:56:20;12.40;99.90
30889;DHT22;51092;50.874;7.024;2022-08-06T03:57:27;12.30;99.90
30889;DHT22;51092;50.874;7.024;2022-08-06T03:58:33;12.20;99.90
30889;DHT22;51092;50.874;7.024;2022-08-06T03:59:39;12.10;99.90
30889;DHT22;51092;50.874;7.024;2022-08-06T04:00:49;12.10;99.90
30889;DHT22;51092;50.874;7.024;2022-08-06T04:01:55;12.10;99.90
30889;DHT22;51092;50.874;7.024;2022-08-06T04:02:58;12.10;99.90
30889;DHT22;51092;50.874;7.024;2022-08-06T04:04:05;12.10;99.90
30889;DHT22;51092;50.874;7.024;2022-08-06T04:05:08;12.10;99.90
30889;DHT22;51092;50.874;7.024;2022-08-06T04:06:13;12.10;99.90
30889;DHT22;51092;50.874;7.024;2022-08-06T04:07:17;12.10;99.90
30889;DHT22;51092;50.874;7.024;2022-08-06T04:08:19;12.10;99.90
30889;DHT22;51092;50.874;7.024;2022-08-06T04:09:23;12.10;99.90
30889;DHT22;51092;50.874;7.024;2022-08-06T04:10:27;12.10;99.90
30889;DHT22;51092;50.874;7.024;2022-08-06T04:11:31;12.00;99.90
30889;DHT22;51092;50.874;7.024;2022-08-06T04:12:34;12.00;99.90
30889;DHT22;51092;50.874;7.024;2022-08-06T04:13:37;12.00;99.90
30889;DHT22;51092;50.874;7.024;2022-08-06T04:14:39;12.00;99.90
30889;DHT22;51092;50.874;7.024;2022-08-06T04:15:42;12.00;99.90
30889;DHT22;51092;50.874;7.024;2022-08-06T04:16:44;12.00;99.90
30889;DHT22;51092;50.874;7.024;2022-08-06T04:17:51;12.10;99.90
30889;DHT22;51092;50.874;7.024;2022-08-06T04:18:53;12.10;99.90
30889;DHT22;51092;50.874;7.024;2022-08-06T04:19:58;12.10;99.90
30889;DHT22;51092;50.874;7.024;2022-08-06T04:21:02;12.10;99.90
30889;DHT22;51092;50.874;7.024;2022-08-06T04:22:05;12.20;99.90
30889;DHT22;51092;50.874;7.024;2022-08-06T04:23:09;12.20;99.90
30889;DHT22;51092;50.874;7.024;2022-08-06T04:24:12;12.20;99.90
30889;DHT22;51092;50.874;7.024;2022-08-06T04:25:16;12.20;99.90
30889;DHT22;51092;50.874;7.024;2022-08-06T04:26:21;12.20;99.90
30889;DHT22;51092;50.874;7.024;2022-08-06T04:27:26;12.20;99.90
30889;DHT22;51092;50.874;7.024;2022-08-06T04:28:31;12.30;99.90
30889;DHT22;51092;50.874;7.024;2022-08-06T04:29:36;12.30;99.90
30889;DHT22;51092;50.874;7.024;2022-08-06T04:30:39;12.30;99.90
30889;DHT22;51092;50.874;7.024;2022-08-06T04:31:44;12.40;99.90
30889;DHT22;51092;50.874;7.024;2022-08-06T04:32:47;12.40;99.90
30889;DHT22;51092;50.874;7.024;2022-08-06T04:33:51;12.40;99.90
30889;DHT22;51092;50.874;7.024;2022-08-06T04:34:55;12.40;99.90
30889;DHT22;51092;50.874;7.024;2022-08-06T04:35:59;12.50;99.90
30889;DHT22;51092;50.874;7.024;2022-08-06T04:37:06;12.50;99.90
30889;DHT22;51092;50.874;7.024;2022-08-06T04:38:10;12.50;99.90
30889;DHT22;51092;50.874;7.024;2022-08-06T04:39:13;12.60;99.90
30889;DHT22;51092;50.874;7.024;2022-08-06T04:40:16;12.70;99.90
30889;DHT22;51092;50.874;7.024;2022-08-06T04:41:19;12.70;99.90
30889;DHT22;51092;50.874;7.024;2022-08-06T04:42:21;12.70;99.90
30889;DHT22;51092;50.874;7.024;2022-08-06T04:43:24;12.70;99.90
30889;DHT22;51092;50.874;7.024;2022-08-06T04:44:26;12.80;99.90
30889;DHT22;51092;50.874;7.024;2022-08-06T04:45:29;12.80;99.90
30889;DHT22;51092;50.874;7.024;2022-08-06T04:46:32;12.90;99.90
30889;DHT22;51092;50.874;7.024;2022-08-06T04:47:36;12.90;99.90
30889;DHT22;51092;50.874;7.024;2022-08-06T04:48:39;12.90;99.90
30889;DHT22;51092;50.874;7.024;2022-08-06T04:49:42;12.90;99.90
30889;DHT22;51092;50.874;7.024;2022-08-06T04:50:44;13.00;99.90
30889;DHT22;51092;50.874;7.024;2022-08-06T04:51:47;13.00;99.90
30889;DHT22;51092;50.874;7.024;2022-08-06T04:52:49;13.00;99.90
30889;DHT22;51092;50.874;7.024;2022-08-06T04:53:51;13.10;99.90
30889;DHT22;51092;50.874;7.024;2022-08-06T04:54:53;13.20;99.90
30889;DHT22;51092;50.874;7.024;2022-08-06T04:55:55;13.30;99.90
30889;DHT22;51092;50.874;7.024;2022-08-06T04:56:57;13.30;99.90
30889;DHT22;51092;50.874;7.024;2022-08-06T04:57:59;13.30;99.90
30889;DHT22;51092;50.874;7.024;2022-08-06T04:59:01;13.40;99.90
30889;DHT22;51092;50.874;7.024;2022-08-06T05:00:03;13.40;99.90
30889;DHT22;51092;50.874;7.024;2022-08-06T05:01:05;13.40;99.90
30889;DHT22;51092;50.874;7.024;2022-08-06T05:02:07;13.40;99.90
30889;DHT22;51092;50.874;7.024;2022-08-06T05:03:09;13.40;99.90
30889;DHT22;51092;50.874;7.024;2022-08-06T05:04:12;13.40;99.90
30889;DHT22;51092;50.874;7.024;2022-08-06T05:05:16;13.50;99.90
30889;DHT22;51092;50.874;7.024;2022-08-06T05:06:23;13.50;99.90
30889;DHT22;51092;50.874;7.024;2022-08-06T05:07:29;13.60;99.90
30889;DHT22;51092;50.874;7.024;2022-08-06T05:08:35;13.50;99.90
30889;DHT22;51092;50.874;7.024;2022-08-06T05:09:40;13.50;99.90
30889;DHT22;51092;50.874;7.024;2022-08-06T05:10:47;13.50;99.90
30889;DHT22;51092;50.874;7.024;2022-08-06T05:11:53;13.60;99.90
30889;DHT22;51092;50.874;7.024;2022-08-06T05:12:56;13.60;99.90
30889;DHT22;51092;50.874;7.024;2022-08-06T05:14:02;13.60;99.90
30889;DHT22;51092;50.874;7.024;2022-08-06T05:15:07;13.60;99.90
30889;DHT22;51092;50.874;7.024;2022-08-06T05:16:13;13.60;99.90
30889;DHT22;51092;50.874;7.024;2022-08-06T05:17:17;13.70;99.90
30889;DHT22;51092;50.874;7.024;2022-08-06T05:18:24;13.70;99.90
30889;DHT22;51092;50.874;7.024;2022-08-06T05:19:31;13.70;99.90
30889;DHT22;51092;50.874;7.024;2022-08-06T05:20:39;13.70;99.90
30889;DHT22;51092;50.874;7.024;2022-08-06T05:21:41;13.80;99.90
30889;DHT22;51092;50.874;7.024;2022-08-06T05:22:47;13.90;99.90
30889;DHT22;51092;50.874;7.024;2022-08-06T05:23:50;13.90;99.90
30889;DHT22;51092;50.874;7.024;2022-08-06T05:24:55;13.90;99.90
30889;DHT22;51092;50.874;7.024;2022-08-06T05:25:58;13.90;99.90
30889;DHT22;51092;50.874;7.024;2022-08-06T05:27:01;13.90;99.90
30889;DHT22;51092;50.874;7.024;2022-08-06T05:28:03;13.80;99.90
30889;DHT22;51092;50.874;7.024;2022-08-06T05:29:06;13.80;99.90
30889;DHT22;51092;50.874;7.024;2022-08-06T05:30:08;13.70;99.90
30889;DHT22;51092;50.874;7.024;2022-08-06T05:31:11;13.70;99.90
30889;DHT22;51092;50.874;7.024;2022-08-06T05:32:12;13.80;99.90
30889;DHT22;51092;50.874;7.024;2022-08-06T05:33:25;13.80;99.90
30889;DHT22;51092;50.874;7.024;2022-08-06T05:34:27;13.80;99.90
30889;DHT22;51092;50.874;7.024;2022-08-06T05:35:30;13.80;99.90
30889;DHT22;51092;50.874;7.024;2022-08-06T05:36:33;13.80;99.90
30889;DHT22;51092;50.874;7.024;2022-08-06T05:37:35;14.00;99.90
30889;DHT22;51092;50.874;7.024;2022-08-06T05:38:38;13.90;99.90
30889;DHT22;51092;50.874;7.024;2022-08-06T05:39:41;13.90;99.90
30889;DHT22;51092;50.874;7.024;2022-08-06T05:40:43;13.90;99.90
30889;DHT22;51092;50.874;7.024;2022-08-06T05:41:46;14.00;99.90
30889;DHT22;51092;50.874;7.024;2022-08-06T05:42:48;14.10;99.90
30889;DHT22;51092;50.874;7.024;2022-08-06T05:43:50;14.20;99.90
30889;DHT22;51092;50.874;7.024;2022-08-06T05:44:52;14.20;99.90
30889;DHT22;51092;50.874;7.024;2022-08-06T05:46:09;14.20;99.90
30889;DHT22;51092;50.874;7.024;2022-08-06T05:47:15;14.20;99.90
30889;DHT22;51092;50.874;7.024;2022-08-06T05:48:21;14.30;99.90
30889;DHT22;51092;50.874;7.024;2022-08-06T05:49:27;14.40;99.90
30889;DHT22;51092;50.874;7.024;2022-08-06T05:50:32;14.40;99.90
30889;DHT22;51092;50.874;7.024;2022-08-06T05:51:45;14.40;99.90
30889;DHT22;51092;50.874;7.024;2022-08-06T05:52:53;14.40;99.90
30889;DHT22;51092;50.874;7.024;2022-08-06T05:54:01;14.40;99.90
30889;DHT22;51092;50.874;7.024;2022-08-06T05:55:08;14.50;99.90
30889;DHT22;51092;50.874;7.024;2022-08-06T05:56:14;14.40;99.90
30889;DHT22;51092;50.874;7.024;2022-08-06T05:57:21;14.40;99.90
30889;DHT22;51092;50.874;7.024;2022-08-06T05:58:30;14.50;99.90
30889;DHT22;51092;50.874;7.024;2022-08-06T05:59:35;14.50;99.90
30889;DHT22;51092;50.874;7.024;2022-08-06T06:00:40;14.60;99.90
30889;DHT22;51092;50.874;7.024;2022-08-06T06:01:43;14.60;99.90
30889;DHT22;51092;50.874;7.024;2022-08-06T06:02:48;14.70;99.90
30889;DHT22;51092;50.874;7.024;2022-08-06T06:03:52;14.70;99.90
30889;DHT22;51092;50.874;7.024;2022-08-06T06:04:56;14.70;99.90
30889;DHT22;51092;50.874;7.024;2022-08-06T06:06:00;14.70;99.90
30889;DHT22;51092;50.874;7.024;2022-08-06T06:07:05;14.70;99.90
30889;DHT22;51092;50.874;7.024;2022-08-06T06:08:06;14.80;99.90
30889;DHT22;51092;50.874;7.024;2022-08-06T06:09:09;14.90;99.90
30889;DHT22;51092;50.874;7.024;2022-08-06T06:10:11;14.90;99.90
30889;DHT22;51092;50.874;7.024;2022-08-06T06:11:16;14.80;99.90
30889;DHT22;51092;50.874;7.024;2022-08-06T06:12:20;14.90;99.90
30889;DHT22;51092;50.874;7.024;2022-08-06T06:13:23;15.00;99.90
30889;DHT22;51092;50.874;7.024;2022-08-06T06:14:30;15.10;99.90
30889;DHT22;51092;50.874;7.024;2022-08-06T06:15:47;15.10;99.30
30889;DHT22;51092;50.874;7.024;2022-08-06T06:16:57;15.10;99.90
30889;DHT22;51092;50.874;7.024;2022-08-06T06:18:07;15.20;99.90
30889;DHT22;51092;50.874;7.024;2022-08-06T06:19:16;15.20;99.90
30889;DHT22;51092;50.874;7.024;2022-08-06T06:20:25;15.10;99.90
30889;DHT22;51092;50.874;7.024;2022-08-06T06:21:36;15.10;99.90
30889;DHT22;51092;50.874;7.024;2022-08-06T06:22:49;15.10;99.90
30889;DHT22;51092;50.874;7.024;2022-08-06T06:23:58;15.10;99.90
30889;DHT22;51092;50.874;7.024;2022-08-06T06:25:06;15.20;99.90
30889;DHT22;51092;50.874;7.024;2022-08-06T06:26:15;15.20;99.90
30889;DHT22;51092;50.874;7.024;2022-08-06T06:27:26;15.30;99.90
30889;DHT22;51092;50.874;7.024;2022-08-06T06:28:34;15.40;99.20
30889;DHT22;51092;50.874;7.024;2022-08-06T06:29:43;15.40;97.80
30889;DHT22;51092;50.874;7.024;2022-08-06T06:30:53;15.40;97.90
30889;DHT22;51092;50.874;7.024;2022-08-06T06:32:02;15.40;99.90
30889;DHT22;51092;50.874;7.024;2022-08-06T06:33:17;15.30;99.90
30889;DHT22;51092;50.874;7.024;2022-08-06T06:34:25;15.20;99.90
30889;DHT22;51092;50.874;7.024;2022-08-06T06:35:35;15.20;99.90
30889;DHT22;51092;50.874;7.024;2022-08-06T06:36:46;15.20;99.90
30889;DHT22;51092;50.874;7.024;2022-08-06T06:37:57;15.20;99.90
30889;DHT22;51092;50.874;7.024;2022-08-06T06:39:05;15.10;99.90
30889;DHT22;51092;50.874;7.024;2022-08-06T06:40:17;15.20;99.90
30889;DHT22;51092;50.874;7.024;2022-08-06T06:41:26;15.10;99.90
30889;DHT22;51092;50.874;7.024;2022-08-06T06:42:36;15.10;99.90
30889;DHT22;51092;50.874;7.024;2022-08-06T06:43:44;15.20;99.90
30889;DHT22;51092;50.874;7.024;2022-08-06T06:45:05;15.20;99.90
30889;DHT22;51092;50.874;7.024;2022-08-06T06:46:15;15.40;99.90
30889;DHT22;51092;50.874;7.024;2022-08-06T06:47:25;15.50;99.90
30889;DHT22;51092;50.874;7.024;2022-08-06T06:48:37;15.60;96.80
30889;DHT22;51092;50.874;7.024;2022-08-06T06:49:47;15.60;98.10